Time;durP1;ratioP1;P1;durP2;ratioP2;P2;SDS_P1;SDS_P2;PMS_P1;PMS_P2;Temp;Humidity;BMP_temperature;BMP_pressure;BME280_temperature;BME280_humidity;BME280_pressure;Samples;Min_cycle;Max_cycle;Signal;HPM_P1;HPM_P2
2021/06/13 00:00:14;;;;;;;7.77;6.20;;;;;;;18.63;64.86;95132.81;5070512;28;20469;-71
2021/06/13 00:02:42;;;;;;;8.77;6.03;;;;;;;18.39;65.51;95120.88;5070395;28;20469;-71
2021/06/13 00:05:12;;;;;;;6.63;5.63;;;;;;;18.55;64.81;95130.91;5060679;28;21103;-71
2021/06/13 00:07:40;;;;;;;6.67;5.97;;;;;;;18.58;65.13;95130.28;5058074;28;20439;-71
2021/06/13 00:10:09;;;;;;;6.97;6.00;;;;;;;18.54;65.08;95129.31;5067073;28;20549;-72
2021/06/13 00:12:36;;;;;;;9.03;5.83;;;;;;;18.33;65.45;95128.16;5070370;28;20438;-73
2021/06/13 00:15:05;;;;;;;7.90;6.50;;;;;;;18.36;65.71;95132.84;5054111;28;20458;-71
2021/06/13 00:17:33;;;;;;;7.97;6.20;;;;;;;18.33;65.64;95128.16;5058839;28;20474;-71
2021/06/13 00:20:00;;;;;;;8.80;6.53;;;;;;;18.18;66.96;95131.91;5055267;28;20450;-70
2021/06/13 00:22:27;;;;;;;6.97;5.73;;;;;;;18.20;66.34;95115.69;5049954;28;20439;-69
2021/06/13 00:24:54;;;;;;;7.47;5.80;;;;;;;18.42;65.89;95117.66;5065209;28;20459;-70
2021/06/13 00:27:21;;;;;;;9.53;6.10;;;;;;;18.56;65.01;95121.84;5068833;28;20430;-70
2021/06/13 00:29:48;;;;;;;6.50;5.73;;;;;;;18.71;64.82;95116.19;5058455;28;20443;-69
2021/06/13 00:32:15;;;;;;;10.40;6.27;;;;;;;18.50;64.53;95107.13;5066985;28;20852;-70
2021/06/13 00:34:42;;;;;;;9.17;6.73;;;;;;;18.36;65.94;95111.63;5069334;28;20577;-71
2021/06/13 00:37:09;;;;;;;8.57;7.17;;;;;;;18.25;66.22;95112.94;5059236;28;20953;-71
2021/06/13 00:39:36;;;;;;;16.93;11.43;;;;;;;18.17;66.46;95113.66;5069610;28;20442;-69
2021/06/13 00:42:04;;;;;;;15.60;14.00;;;;;;;17.99;67.15;95106.59;5068496;28;20438;-70
2021/06/13 00:44:31;;;;;;;15.97;12.67;;;;;;;18.19;66.49;95114.91;5069395;28;20473;-70
2021/06/13 00:46:58;;;;;;;13.13;11.60;;;;;;;18.17;66.06;95106.47;5067363;28;20541;-71
2021/06/13 00:49:25;;;;;;;12.23;9.73;;;;;;;18.26;65.64;95106.56;5047619;28;20829;-70
2021/06/13 00:51:53;;;;;;;11.30;9.50;;;;;;;18.28;65.77;95114.22;5063316;28;20449;-70
2021/06/13 00:54:20;;;;;;;11.87;9.50;;;;;;;18.25;65.83;95110.28;5053945;28;20442;-70
2021/06/13 00:56:48;;;;;;;10.63;8.43;;;;;;;18.30;65.36;95104.88;5068505;28;20442;-69
2021/06/13 00:59:16;;;;;;;9.27;8.23;;;;;;;18.30;65.30;95104.88;5069083;28;20444;-71
2021/06/13 01:01:44;;;;;;;8.97;8.00;;;;;;;18.44;64.14;95099.56;5058132;28;20533;-68
2021/06/13 01:04:12;;;;;;;9.63;7.80;;;;;;;18.36;64.76;95100.22;5064446;28;21047;-70
2021/06/13 01:07:02;;;;;;;8.00;7.17;;;;;;;18.43;64.51;95103.31;5052467;28;20505;-70
2021/06/13 01:09:33;;;;;;;8.13;7.43;;;;;;;18.21;64.21;95096.03;5057561;28;21317;-70
2021/06/13 01:12:07;;;;;;;8.57;7.70;;;;;;;18.27;64.80;95100.16;5049692;28;20571;-71
2021/06/13 01:14:46;;;;;;;8.90;8.00;;;;;;;18.49;64.04;95097.59;5059848;28;20477;-70
2021/06/13 01:17:29;;;;;;;12.07;8.83;;;;;;;18.48;63.35;95097.88;5064836;28;20450;-70
2021/06/13 01:20:16;;;;;;;11.53;7.97;;;;;;;18.46;63.63;95090.22;5053417;28;20982;-70
2021/06/13 01:23:08;;;;;;;12.33;8.90;;;;;;;18.54;63.22;95083.44;5053766;28;21269;-70
2021/06/13 01:26:02;;;;;;;16.80;8.07;;;;;;;18.47;63.50;95091.78;5067132;28;20470;-69
2021/06/13 01:28:57;;;;;;;10.60;8.47;;;;;;;18.28;63.90;95093.78;5066381;28;20473;-69
2021/06/13 01:31:29;;;;;;;10.77;7.60;;;;;;;18.27;63.43;95081.59;5071972;28;20474;-70
2021/06/13 01:34:00;;;;;;;9.77;7.90;;;;;;;18.07;64.01;95087.31;5068008;28;20447;-70
2021/06/13 01:36:32;;;;;;;11.20;7.60;;;;;;;17.97;64.23;95087.56;5052246;28;20438;-69
2021/06/13 01:39:09;;;;;;;8.53;7.67;;;;;;;18.01;64.41;95099.13;5057900;28;20438;-70
2021/06/13 01:41:38;;;;;;;8.33;7.43;;;;;;;18.02;63.66;95100.69;5073017;28;20453;-70
2021/06/13 01:44:07;;;;;;;17.47;7.73;;;;;;;17.88;63.80;95087.44;5051599;28;20481;-69
2021/06/13 01:46:38;;;;;;;8.93;7.23;;;;;;;17.95;63.67;95100.31;5065625;28;20883;-70
2021/06/13 01:49:07;;;;;;;10.83;8.13;;;;;;;17.85;64.01;95089.91;5068931;28;20449;-70
2021/06/13 01:51:38;;;;;;;12.40;8.43;;;;;;;18.08;63.30;95088.91;5073222;28;20438;-69
2021/06/13 01:54:07;;;;;;;10.20;8.77;;;;;;;17.70;63.94;95076.97;5056905;28;20441;-69
2021/06/13 01:56:47;;;;;;;13.60;10.23;;;;;;;17.55;64.78;95069.31;5072578;28;20495;-70
2021/06/13 01:59:22;;;;;;;13.90;10.50;;;;;;;17.52;65.19;95085.78;5051222;28;20469;-70
2021/06/13 02:01:59;;;;;;;20.60;12.23;;;;;;;17.35;65.58;95085.53;5064824;28;20452;-70
2021/06/13 02:04:34;;;;;;;12.30;11.07;;;;;;;17.23;65.68;95075.41;5057233;28;20469;-70
2021/06/13 02:07:08;;;;;;;14.77;10.27;;;;;;;17.30;65.78;95077.69;5064318;28;20495;-70
2021/06/13 02:09:38;;;;;;;12.07;10.77;;;;;;;17.56;65.34;95086.75;5070987;28;20496;-70
2021/06/13 02:12:08;;;;;;;12.63;10.53;;;;;;;17.50;65.24;95082.66;5071075;28;20964;-70
2021/06/13 02:15:00;;;;;;;12.70;11.37;;;;;;;17.44;65.58;95071.34;5066846;28;20441;-71
2021/06/13 02:17:37;;;;;;;11.83;10.63;;;;;;;17.41;65.05;95076.44;5068245;28;20433;-71
2021/06/13 02:20:11;;;;;;;13.50;11.10;;;;;;;17.58;64.78;95074.00;5070880;28;20491;-71
2021/06/13 02:22:40;;;;;;;13.33;9.47;;;;;;;17.52;64.67;95075.16;5072053;28;20541;-71
2021/06/13 02:25:09;;;;;;;15.60;9.47;;;;;;;17.59;64.62;95081.66;5067408;28;20466;-71
2021/06/13 02:27:38;;;;;;;11.13;8.80;;;;;;;17.77;63.71;95075.47;5070581;28;20483;-70
2021/06/13 02:30:08;;;;;;;10.87;8.80;;;;;;;17.71;63.97;95074.03;5071254;28;20871;-70
2021/06/13 02:32:41;;;;;;;13.77;9.07;;;;;;;17.58;63.79;95063.41;5064713;28;20468;-70
2021/06/13 02:35:11;;;;;;;11.60;8.87;;;;;;;17.60;63.79;95072.66;5070519;28;20445;-71
2021/06/13 02:37:44;;;;;;;11.10;9.47;;;;;;;17.69;64.23;95078.03;5063784;28;20868;-71
2021/06/13 02:40:18;;;;;;;11.17;9.23;;;;;;;17.60;63.52;95071.84;5068679;28;20519;-71
2021/06/13 02:42:46;;;;;;;12.13;10.27;;;;;;;17.50;64.43;95072.06;5059810;28;20446;-72
2021/06/13 02:45:20;;;;;;;10.07;8.90;;;;;;;17.48;63.89;95067.03;5069756;28;20838;-72
2021/06/13 02:47:51;;;;;;;14.03;10.00;;;;;;;17.55;64.23;95074.59;5059353;28;20505;-71
2021/06/13 02:50:23;;;;;;;13.13;9.93;;;;;;;17.65;64.18;95077.03;5054560;28;20459;-72
2021/06/13 02:53:05;;;;;;;11.33;10.07;;;;;;;17.72;63.74;95074.78;5058796;28;20787;-71
2021/06/13 02:55:44;;;;;;;10.83;9.57;;;;;;;17.66;63.39;95070.69;5071341;28;20449;-72
2021/06/13 02:58:22;;;;;;;9.20;7.90;;;;;;;17.27;63.37;95070.31;5069840;28;20474;-71
2021/06/13 03:00:50;;;;;;;12.13;7.93;;;;;;;17.52;62.69;95069.88;5067435;28;20439;-72
2021/06/13 03:03:20;;;;;;;11.77;7.90;;;;;;;17.43;63.48;95074.25;5062311;28;20495;-71
2021/06/13 03:05:49;;;;;;;7.90;7.13;;;;;;;17.34;63.62;95070.72;5069623;28;20918;-72
2021/06/13 03:08:18;;;;;;;8.20;7.27;;;;;;;17.62;63.34;95069.69;5070167;28;20446;-72
2021/06/13 03:10:48;;;;;;;9.07;7.60;;;;;;;17.57;63.11;95072.44;5069944;28;20964;-70
2021/06/13 03:13:17;;;;;;;9.60;7.07;;;;;;;17.57;62.32;95075.88;5068925;28;20449;-72
2021/06/13 03:15:45;;;;;;;10.67;7.67;;;;;;;17.68;62.42;95073.81;5057199;28;20442;-72
2021/06/13 03:18:14;;;;;;;8.07;7.23;;;;;;;17.54;63.24;95073.81;5069715;28;20446;-71
2021/06/13 03:20:43;;;;;;;12.47;7.43;;;;;;;17.19;63.17;95061.97;5050960;28;20435;-70
2021/06/13 03:23:10;;;;;;;12.23;6.97;;;;;;;17.07;63.76;95059.03;5051635;28;20546;-73
2021/06/13 03:25:38;;;;;;;9.60;5.97;;;;;;;17.02;63.01;95058.31;5068095;28;20502;-70
2021/06/13 03:28:07;;;;;;;6.90;6.20;;;;;;;17.00;63.43;95055.97;5059893;28;20449;-70
2021/06/13 03:30:36;;;;;;;10.37;5.90;;;;;;;17.02;63.88;95064.38;5053367;28;20469;-70
2021/06/13 03:33:07;;;;;;;7.37;5.40;;;;;;;17.16;64.06;95059.91;5071267;28;20540;-71
2021/06/13 03:35:39;;;;;;;7.80;6.20;;;;;;;16.99;64.32;95057.03;5069024;28;21033;-70
2021/06/13 03:38:06;;;;;;;10.03;6.57;;;;;;;17.30;63.85;95067.09;5069779;28;20453;-72
2021/06/13 03:40:35;;;;;;;7.70;6.90;;;;;;;17.13;64.58;95073.72;5070274;28;20493;-72
2021/06/13 03:43:03;;;;;;;9.10;6.87;;;;;;;17.38;63.52;95074.34;5071053;28;20449;-73
2021/06/13 03:45:30;;;;;;;8.13;7.33;;;;;;;17.16;64.31;95067.88;5056131;28;20478;-71
2021/06/13 03:47:59;;;;;;;8.57;6.63;;;;;;;17.29;64.44;95065.50;5070671;28;20503;-72
2021/06/13 03:50:27;;;;;;;9.43;7.70;;;;;;;17.43;64.28;95050.41;5067297;28;20429;-71
2021/06/13 03:52:54;;;;;;;13.10;8.20;;;;;;;17.59;64.03;95075.59;5059466;28;20511;-73
2021/06/13 03:55:21;;;;;;;10.10;8.97;;;;;;;17.70;63.08;95071.66;5069051;28;20451;-72
2021/06/13 03:57:51;;;;;;;13.47;9.50;;;;;;;17.72;63.49;95069.47;5057493;28;20892;-72
2021/06/13 04:00:19;;;;;;;15.37;9.33;;;;;;;17.39;64.19;95071.41;5056577;28;20808;-71
2021/06/13 04:02:48;;;;;;;13.03;9.90;;;;;;;17.31;64.69;95068.66;5064364;28;20447;-70
2021/06/13 04:05:24;;;;;;;12.27;10.10;;;;;;;17.37;64.99;95059.56;5061883;28;20492;-70
2021/06/13 04:07:51;;;;;;;17.10;11.40;;;;;;;17.16;66.19;95054.63;5058044;28;20532;-70
2021/06/13 04:10:18;;;;;;;16.03;12.40;;;;;;;17.18;66.26;95060.41;5054419;28;20434;-70
2021/06/13 04:12:49;;;;;;;16.60;13.00;;;;;;;17.38;65.88;95061.09;5059853;28;20553;-70
2021/06/13 04:15:17;;;;;;;14.57;12.50;;;;;;;17.56;65.64;95055.75;5049738;28;21030;-70
2021/06/13 04:17:45;;;;;;;15.90;11.27;;;;;;;17.75;65.65;95053.00;5060049;28;20444;-70
2021/06/13 04:20:13;;;;;;;15.30;11.17;;;;;;;17.88;64.88;95052.22;5053447;28;20439;-69
2021/06/13 04:22:42;;;;;;;12.30;10.33;;;;;;;17.95;64.46;95057.91;5058838;28;20436;-72
2021/06/13 04:25:13;;;;;;;11.83;8.37;;;;;;;17.96;63.99;95041.69;5054284;28;20501;-72
2021/06/13 04:27:41;;;;;;;12.17;9.00;;;;;;;17.48;65.16;95045.84;5050499;28;20439;-71
2021/06/13 04:30:09;;;;;;;10.90;9.80;;;;;;;17.42;65.83;95039.06;5049525;28;20442;-71
2021/06/13 04:32:36;;;;;;;12.67;9.33;;;;;;;17.65;64.59;95047.91;5049828;28;20502;-69
2021/06/13 04:35:04;;;;;;;10.40;9.23;;;;;;;17.89;64.26;95037.88;5061794;28;20469;-69
2021/06/13 04:37:32;;;;;;;14.63;9.63;;;;;;;17.69;64.25;95040.94;5069971;28;20475;-70
2021/06/13 04:39:58;;;;;;;10.33;9.27;;;;;;;17.93;64.09;95044.16;5069797;28;20436;-71
2021/06/13 04:42:25;;;;;;;16.83;9.60;;;;;;;18.12;63.42;95047.44;5064262;28;20531;-71
2021/06/13 04:44:52;;;;;;;10.27;9.03;;;;;;;18.11;62.82;95040.56;5061968;28;20567;-71
2021/06/13 04:47:19;;;;;;;10.77;9.67;;;;;;;17.88;63.86;95052.97;5069958;28;20431;-72
2021/06/13 04:49:54;;;;;;;11.57;9.70;;;;;;;17.70;64.41;95034.56;5069678;28;20787;-71
2021/06/13 04:52:23;;;;;;;16.13;10.50;;;;;;;17.89;65.24;95043.16;5058680;28;20450;-72
2021/06/13 04:54:53;;;;;;;11.33;9.43;;;;;;;17.26;65.29;95042.28;5065508;28;20565;-71
2021/06/13 04:57:44;;;;;;;15.83;10.17;;;;;;;17.91;65.71;95047.09;5073796;28;20520;-72
2021/06/13 05:00:11;;;;;;;12.30;9.87;;;;;;;18.26;64.52;95037.59;5076064;28;20827;-73
2021/06/13 05:02:39;;;;;;;11.53;9.30;;;;;;;18.17;64.56;95047.34;5061987;28;20444;-71
2021/06/13 05:05:06;;;;;;;10.87;9.60;;;;;;;18.34;65.25;95050.13;5071920;28;20482;-70
2021/06/13 05:07:33;;;;;;;10.47;8.83;;;;;;;18.44;63.89;95052.59;5067091;28;20841;-70
2021/06/13 05:10:00;;;;;;;13.07;9.37;;;;;;;18.39;63.61;95058.00;5059644;28;20804;-70
2021/06/13 05:12:27;;;;;;;14.07;9.80;;;;;;;18.42;63.69;95062.72;5064799;28;20445;-73
2021/06/13 05:14:54;;;;;;;13.37;9.00;;;;;;;18.36;63.28;95063.88;5075758;28;20441;-71
2021/06/13 05:17:21;;;;;;;14.73;10.50;;;;;;;18.36;64.39;95047.97;5056737;28;20541;-72
2021/06/13 05:19:48;;;;;;;11.07;9.70;;;;;;;18.40;64.08;95059.56;5068534;28;20442;-71
2021/06/13 05:22:15;;;;;;;11.77;10.27;;;;;;;18.44;64.08;95054.47;5062695;28;20445;-71
2021/06/13 05:24:42;;;;;;;10.73;9.67;;;;;;;18.40;64.33;95045.50;5075470;28;20503;-72
2021/06/13 05:27:09;;;;;;;12.23;10.33;;;;;;;18.44;64.61;95052.59;5071400;28;20437;-72
2021/06/13 05:29:36;;;;;;;12.00;10.47;;;;;;;18.13;64.39;95056.97;5065661;28;20820;-71
2021/06/13 05:32:03;;;;;;;12.37;10.00;;;;;;;18.46;63.09;95053.09;5060270;28;20477;-73
2021/06/13 05:34:30;;;;;;;13.33;9.80;;;;;;;18.44;62.89;95044.63;5063554;28;20532;-74
2021/06/13 05:36:57;;;;;;;12.60;10.43;;;;;;;18.54;64.04;95038.31;5065088;28;20800;-73
2021/06/13 05:39:24;;;;;;;15.57;11.20;;;;;;;18.77;64.22;95037.22;5075536;28;20448;-73
2021/06/13 05:41:50;;;;;;;12.87;10.77;;;;;;;18.88;64.05;95043.84;5075790;28;20444;-72
2021/06/13 05:44:17;;;;;;;11.20;10.17;;;;;;;19.28;63.21;95047.34;5067696;28;20455;-72
2021/06/13 05:46:44;;;;;;;13.50;12.10;;;;;;;19.25;62.37;95037.34;5069122;28;20478;-72
2021/06/13 05:49:11;;;;;;;12.03;10.90;;;;;;;19.04;63.77;95029.09;5073799;28;21218;-74
2021/06/13 05:51:38;;;;;;;14.43;10.40;;;;;;;18.95;63.69;95029.06;5074563;28;20448;-73
2021/06/13 05:54:05;;;;;;;11.83;10.73;;;;;;;19.00;64.22;95042.22;5070574;28;20983;-72
2021/06/13 05:56:32;;;;;;;13.40;11.53;;;;;;;19.10;64.77;95041.94;5066829;28;20831;-73
2021/06/13 05:58:59;;;;;;;13.50;12.20;;;;;;;19.23;64.15;95045.63;5058615;28;20453;-72
2021/06/13 06:01:26;;;;;;;12.77;11.60;;;;;;;19.28;64.14;95047.34;5056029;28;20442;-72
2021/06/13 06:03:53;;;;;;;12.87;11.57;;;;;;;19.07;63.12;95031.94;5067406;28;20531;-72
2021/06/13 06:06:20;;;;;;;12.77;11.50;;;;;;;19.09;63.78;95035.06;5058653;28;21017;-73
2021/06/13 06:08:47;;;;;;;16.33;12.97;;;;;;;19.07;63.77;95039.91;5052391;28;20530;-72
2021/06/13 06:11:14;;;;;;;13.97;12.57;;;;;;;18.97;62.98;95016.28;5068196;28;20451;-72
2021/06/13 06:13:41;;;;;;;12.80;11.37;;;;;;;19.23;62.13;95034.19;5056423;28;20440;-72
2021/06/13 06:16:08;;;;;;;13.77;12.13;;;;;;;19.11;62.16;95027.59;5072340;28;20438;-71
2021/06/13 06:18:35;;;;;;;15.63;12.07;;;;;;;19.20;62.78;95046.22;5058294;28;20450;-72
2021/06/13 06:21:03;;;;;;;15.27;13.77;;;;;;;19.41;62.16;95049.16;5064591;28;20439;-70
2021/06/13 06:23:30;;;;;;;13.37;12.00;;;;;;;19.44;62.08;95040.56;5059996;28;20798;-72
2021/06/13 06:25:57;;;;;;;14.43;12.80;;;;;;;19.46;61.79;95043.69;5056463;28;20505;-69
2021/06/13 06:28:24;;;;;;;14.40;11.87;;;;;;;19.58;61.69;95043.91;5059122;28;20453;-70
2021/06/13 06:30:51;;;;;;;13.70;11.97;;;;;;;19.31;63.47;95036.91;5058934;28;20469;-73
2021/06/13 06:33:18;;;;;;;14.23;11.63;;;;;;;19.23;63.61;95027.78;5065886;28;20533;-73
2021/06/13 06:35:45;;;;;;;13.77;12.17;;;;;;;19.66;62.76;95028.00;5063936;28;20444;-73
2021/06/13 06:38:12;;;;;;;16.13;12.20;;;;;;;19.72;62.27;95015.34;5067425;28;20488;-72
2021/06/13 06:40:39;;;;;;;12.73;11.40;;;;;;;19.73;62.65;95022.22;5052916;28;20446;-74
2021/06/13 06:43:06;;;;;;;13.83;12.53;;;;;;;19.39;63.56;95027.41;5053398;28;20443;-73
2021/06/13 06:45:32;;;;;;;14.33;12.73;;;;;;;19.50;63.59;95018.09;5054499;28;20479;-73
2021/06/13 06:47:59;;;;;;;15.03;13.53;;;;;;;19.91;62.08;95005.97;5060172;28;20192;-73
2021/06/13 06:50:26;;;;;;;15.83;14.30;;;;;;;20.13;61.61;95019.16;5062492;28;20443;-72
2021/06/13 06:52:53;;;;;;;20.07;14.37;;;;;;;19.65;61.71;94999.81;5061796;28;20199;-72
2021/06/13 06:55:21;;;;;;;16.10;14.40;;;;;;;19.85;60.65;94987.84;5053997;28;20458;-72
2021/06/13 06:57:48;;;;;;;18.60;14.83;;;;;;;19.95;61.00;95006.16;5055241;28;20439;-74
2021/06/13 07:00:17;;;;;;;16.60;14.10;;;;;;;20.21;62.22;94996.34;5052993;28;20207;-75
2021/06/13 07:02:44;;;;;;;15.37;13.97;;;;;;;20.36;61.49;95008.41;5058750;28;20434;-74
2021/06/13 07:05:14;;;;;;;14.70;13.10;;;;;;;20.18;59.63;94983.69;5057510;28;20224;-74
2021/06/13 07:07:42;;;;;;;14.00;12.53;;;;;;;20.18;61.66;94997.75;5057717;28;20188;-73
2021/06/13 07:10:11;;;;;;;13.67;12.30;;;;;;;20.64;60.69;94997.09;5055630;28;20960;-73
2021/06/13 07:12:38;;;;;;;12.67;11.37;;;;;;;20.78;59.22;94996.94;5060930;28;20193;-74
2021/06/13 07:15:08;;;;;;;14.20;11.57;;;;;;;20.80;60.24;94992.84;5060619;28;20196;-73
2021/06/13 07:17:36;;;;;;;12.60;11.30;;;;;;;21.12;59.02;94989.66;5056635;28;20390;-73
2021/06/13 07:20:07;;;;;;;15.27;12.10;;;;;;;21.43;58.32;94983.25;5057906;28;20673;-74
2021/06/13 07:22:35;;;;;;;13.70;11.60;;;;;;;21.42;57.75;94981.72;5058820;28;20191;-72
2021/06/13 07:25:05;;;;;;;16.83;12.20;;;;;;;21.62;57.17;94973.00;5058417;28;20319;-74
2021/06/13 07:27:33;;;;;;;16.20;12.43;;;;;;;21.87;56.91;94982.75;5064507;28;20960;-72
2021/06/13 07:30:00;;;;;;;13.80;11.30;;;;;;;21.72;56.98;94981.38;5057635;28;20212;-73
2021/06/13 07:32:27;;;;;;;14.07;12.10;;;;;;;22.09;56.49;94985.09;5064564;28;20616;-73
2021/06/13 07:34:54;;;;;;;13.17;11.23;;;;;;;22.12;56.91;94968.44;5070751;28;20210;-72
2021/06/13 07:37:21;;;;;;;13.17;11.10;;;;;;;21.94;57.62;94975.00;5062687;28;20195;-74
2021/06/13 07:39:48;;;;;;;15.40;10.47;;;;;;;22.24;57.38;94965.84;5059140;28;20742;-76
2021/06/13 07:42:15;;;;;;;13.83;10.57;;;;;;;22.37;56.65;94969.34;5058224;28;20630;-73
2021/06/13 07:44:43;;;;;;;11.83;9.90;;;;;;;22.32;55.80;94980.22;5054188;28;20257;-70
2021/06/13 07:47:09;;;;;;;12.73;10.17;;;;;;;22.37;55.29;94970.13;5061305;28;20602;-73
2021/06/13 07:49:37;;;;;;;12.30;9.70;;;;;;;22.42;54.87;94969.94;5054082;28;20655;-71
2021/06/13 07:52:04;;;;;;;10.70;8.03;;;;;;;22.75;52.41;94970.75;5055550;28;20201;-74
2021/06/13 07:54:31;;;;;;;8.97;7.60;;;;;;;22.75;51.49;94970.75;5049091;28;20180;-75
2021/06/13 07:56:58;;;;;;;10.47;7.27;;;;;;;23.04;51.83;94959.13;5056685;28;20232;-72
2021/06/13 07:59:25;;;;;;;10.73;7.37;;;;;;;22.87;50.58;94970.78;5058271;28;20208;-73
2021/06/13 08:01:52;;;;;;;7.53;6.90;;;;;;;22.54;49.86;94971.84;5059544;28;20200;-70
2021/06/13 08:04:19;;;;;;;8.43;7.00;;;;;;;22.29;50.22;94968.31;5063577;28;20529;-71
2021/06/13 08:06:46;;;;;;;7.47;6.63;;;;;;;22.39;49.34;94967.91;5056578;28;20221;-72
2021/06/13 08:09:13;;;;;;;8.17;7.37;;;;;;;22.15;50.57;94979.25;5058419;28;20191;-69
2021/06/13 08:11:40;;;;;;;9.83;7.87;;;;;;;22.38;50.10;94971.69;5060406;28;20278;-74
2021/06/13 08:14:07;;;;;;;32.60;29.43;;;;;;;22.62;49.96;94971.03;5058591;28;20196;-70
2021/06/13 08:16:34;;;;;;;22.67;16.53;;;;;;;22.85;48.93;94972.22;5051857;28;20196;-71
2021/06/13 08:19:02;;;;;;;22.23;20.10;;;;;;;22.60;48.65;94973.25;5064793;28;20199;-69
2021/06/13 08:21:29;;;;;;;17.60;8.10;;;;;;;22.68;49.30;94975.06;5066705;28;20674;-72
2021/06/13 08:23:56;;;;;;;14.50;8.63;;;;;;;22.55;49.00;94976.91;5057083;28;20200;-69
2021/06/13 08:26:24;;;;;;;9.40;8.43;;;;;;;22.80;49.13;94973.22;5059618;28;20669;-67
2021/06/13 08:28:51;;;;;;;35.60;32.23;;;;;;;22.67;49.35;94987.63;5060337;28;20193;-73
2021/06/13 08:31:18;;;;;;;22.83;19.73;;;;;;;22.87;48.91;94978.78;5057583;28;20313;-69
2021/06/13 08:33:45;;;;;;;24.07;21.60;;;;;;;22.76;49.60;94977.66;5064673;28;20196;-73
2021/06/13 08:36:12;;;;;;;12.37;11.03;;;;;;;22.45;50.37;94977.28;5055452;28;20642;-70
2021/06/13 08:38:39;;;;;;;12.33;10.77;;;;;;;22.54;50.74;94977.19;5049994;28;20197;-73
2021/06/13 08:41:06;;;;;;;33.43;29.40;;;;;;;22.43;50.02;94974.16;5057505;28;20275;-73
2021/06/13 08:43:34;;;;;;;86.30;77.40;;;;;;;22.66;50.42;94978.03;5056858;28;20188;-74
2021/06/13 08:46:03;;;;;;;12.33;11.07;;;;;;;22.38;50.22;94976.25;5062724;28;20306;-71
2021/06/13 08:48:32;;;;;;;12.53;11.23;;;;;;;22.37;50.43;94970.13;5054736;28;20734;-71
2021/06/13 08:51:01;;;;;;;12.97;11.67;;;;;;;22.55;50.28;94965.41;5056090;28;20744;-74
2021/06/13 08:53:28;;;;;;;12.20;11.00;;;;;;;22.19;50.04;94990.03;5061239;28;20183;-69
2021/06/13 08:55:55;;;;;;;12.50;11.20;;;;;;;22.09;50.06;94991.25;5061184;28;20199;-71
2021/06/13 08:58:22;;;;;;;13.47;12.13;;;;;;;22.11;50.20;94988.25;5060526;28;20571;-71
2021/06/13 09:00:50;;;;;;;13.57;12.17;;;;;;;22.04;50.88;94985.31;5050946;28;20204;-74
2021/06/13 09:03:19;;;;;;;13.13;10.20;;;;;;;21.79;50.98;94988.91;5059646;28;20717;-72
2021/06/13 09:05:46;;;;;;;16.57;11.13;;;;;;;21.41;51.69;94985.47;5060447;28;20218;-73
2021/06/13 09:08:14;;;;;;;10.83;9.30;;;;;;;21.30;52.21;95000.25;5058476;28;20200;-73
2021/06/13 09:10:46;;;;;;;13.37;9.80;;;;;;;21.55;52.33;95000.13;5060618;28;20188;-73
2021/06/13 09:13:22;;;;;;;11.67;10.47;;;;;;;21.21;52.72;95007.50;5062074;28;20219;-74
2021/06/13 09:15:59;;;;;;;11.17;10.27;;;;;;;21.07;52.86;94997.84;5050579;28;21061;-71
2021/06/13 09:18:32;;;;;;;16.17;10.37;;;;;;;21.13;53.47;95009.88;5065054;28;20214;-70
2021/06/13 09:21:00;;;;;;;11.70;10.47;;;;;;;21.23;53.97;95026.63;5054423;28;20207;-71
2021/06/13 09:23:29;;;;;;;11.83;10.37;;;;;;;21.24;56.34;95022.88;5063196;28;20211;-69
2021/06/13 09:26:05;;;;;;;28.00;25.10;;;;;;;21.12;56.55;95026.19;5064099;28;20302;-71
2021/06/13 09:28:39;;;;;;;9.90;8.83;;;;;;;20.82;57.15;95029.84;5056985;28;20203;-72
2021/06/13 09:31:24;;;;;;;10.30;9.30;;;;;;;20.72;58.50;95032.81;5060741;28;20311;-71
2021/06/13 09:33:53;;;;;;;9.60;8.63;;;;;;;21.23;58.45;95034.59;5055436;28;20205;-74
2021/06/13 09:36:29;;;;;;;9.80;8.90;;;;;;;21.12;58.63;95032.31;5059285;28;20567;-72
2021/06/13 09:39:01;;;;;;;9.30;8.50;;;;;;;21.02;59.13;95031.88;5060869;28;20204;-70
2021/06/13 09:41:28;;;;;;;9.00;8.20;;;;;;;20.36;61.85;95041.13;5054442;28;20239;-70
2021/06/13 09:44:02;;;;;;;12.90;11.63;;;;;;;20.74;61.44;95042.06;5060821;28;20262;-68
2021/06/13 09:46:32;;;;;;;16.03;14.27;;;;;;;20.52;61.97;95050.22;5061234;28;20219;-68
2021/06/13 09:49:09;;;;;;;9.80;8.90;;;;;;;20.27;63.41;95043.00;5056882;28;20648;-70
2021/06/13 09:51:41;;;;;;;8.87;8.00;;;;;;;20.22;63.91;95043.13;5065532;28;20438;-70
2021/06/13 09:54:11;;;;;;;9.23;8.00;;;;;;;19.87;64.48;95028.97;5066806;28;21072;-70
2021/06/13 09:56:40;;;;;;;8.20;7.40;;;;;;;20.20;64.26;95040.00;5059454;28;20441;-71
2021/06/13 09:59:11;;;;;;;9.63;7.90;;;;;;;20.53;64.04;95035.78;5053675;28;20218;-71
2021/06/13 10:01:46;;;;;;;7.73;7.03;;;;;;;20.30;64.15;95042.38;5069030;28;20194;-75
2021/06/13 10:04:20;;;;;;;8.10;7.30;;;;;;;20.65;63.97;95043.94;5064724;28;20242;-71
2021/06/13 10:06:49;;;;;;;6.80;6.20;;;;;;;20.10;63.83;95045.59;5068097;28;20227;-71
2021/06/13 10:09:18;;;;;;;7.70;7.00;;;;;;;20.42;64.09;95039.88;5059963;28;20434;-70
2021/06/13 10:11:47;;;;;;;6.23;5.63;;;;;;;20.08;63.84;95040.59;5064667;28;20196;-71
2021/06/13 10:14:18;;;;;;;5.50;5.00;;;;;;;20.07;63.72;95046.25;5056202;28;20201;-72
2021/06/13 10:16:49;;;;;;;6.73;6.13;;;;;;;20.24;64.31;95053.50;5060875;28;20205;-68
2021/06/13 10:19:24;;;;;;;6.60;6.00;;;;;;;20.08;63.79;95050.44;5061135;28;20438;-71
2021/06/13 10:21:57;;;;;;;7.80;5.87;;;;;;;20.25;63.49;95050.53;5061888;28;20195;-71
2021/06/13 10:24:27;;;;;;;6.40;5.70;;;;;;;20.11;62.96;95045.28;5070707;28;20481;-71
2021/06/13 10:27:01;;;;;;;7.63;6.13;;;;;;;20.20;63.95;95050.66;5064587;28;20482;-71
2021/06/13 10:29:31;;;;;;;9.07;6.90;;;;;;;20.28;63.12;95054.41;5070480;28;20183;-70
2021/06/13 10:32:00;;;;;;;7.33;6.30;;;;;;;20.36;63.43;95051.78;5069706;28;20538;-73
2021/06/13 10:34:29;;;;;;;7.43;6.03;;;;;;;20.38;63.02;95046.13;5064058;28;20450;-73
2021/06/13 10:37:00;;;;;;;6.90;6.30;;;;;;;20.30;63.60;95047.69;5065150;28;20192;-70
2021/06/13 10:39:30;;;;;;;25.37;22.73;;;;;;;19.66;65.53;95048.47;5068446;28;20896;-69
2021/06/13 10:41:57;;;;;;;41.33;37.50;;;;;;;19.87;65.05;95044.16;5052639;28;20443;-70
2021/06/13 10:44:27;;;;;;;7.33;6.03;;;;;;;19.89;65.22;95063.25;5064681;28;20439;-71
2021/06/13 10:46:58;;;;;;;6.03;5.43;;;;;;;19.65;64.02;95063.63;5064664;28;20557;-72
2021/06/13 10:49:35;;;;;;;6.37;5.70;;;;;;;19.89;63.87;95063.25;5060528;28;20245;-73
2021/06/13 10:52:12;;;;;;;5.37;4.87;;;;;;;19.97;63.21;95054.50;5065637;28;20437;-76
2021/06/13 10:54:52;;;;;;;5.83;5.30;;;;;;;19.98;63.69;95061.41;5067675;28;20448;-71
2021/06/13 10:57:19;;;;;;;6.03;5.20;;;;;;;20.13;63.36;95060.94;5067087;28;20474;-71
2021/06/13 10:59:50;;;;;;;6.07;5.50;;;;;;;19.69;63.28;95042.56;5069741;28;20476;-71
2021/06/13 11:02:26;;;;;;;5.50;5.00;;;;;;;19.98;62.94;95045.44;5068192;28;20442;-71
2021/06/13 11:05:04;;;;;;;5.57;5.07;;;;;;;20.20;62.44;95032.03;5068404;28;20503;-73
2021/06/13 11:07:43;;;;;;;6.33;5.17;;;;;;;20.03;62.84;95045.28;5069011;28;21086;-74
2021/06/13 11:10:15;;;;;;;5.20;4.67;;;;;;;20.00;62.88;95032.59;5067234;28;20974;-71
2021/06/13 11:12:47;;;;;;;6.13;4.73;;;;;;;19.97;63.74;95038.53;5069401;28;21231;-71
2021/06/13 11:15:41;;;;;;;5.57;5.07;;;;;;;20.04;64.25;95054.81;5068623;28;20447;-73
2021/06/13 11:18:19;;;;;;;5.27;4.77;;;;;;;20.03;63.43;95042.63;5067666;28;21028;-75
2021/06/13 11:21:07;;;;;;;4.97;4.33;;;;;;;20.02;63.35;95047.16;5056696;28;20536;-73
2021/06/13 11:23:34;;;;;;;4.77;4.37;;;;;;;20.32;61.90;95040.19;5064347;28;20442;-69
2021/06/13 11:26:05;;;;;;;5.07;4.67;;;;;;;20.51;61.49;95030.00;5066971;28;20446;-73
2021/06/13 11:28:34;;;;;;;4.97;4.50;;;;;;;20.49;61.71;95034.84;5063302;28;20434;-73
2021/06/13 11:31:13;;;;;;;5.57;4.60;;;;;;;20.33;61.54;95036.41;5062591;28;20493;-75
2021/06/13 11:33:50;;;;;;;5.90;4.17;;;;;;;20.58;61.17;95035.66;5064547;28;20438;-73
2021/06/13 11:36:17;;;;;;;6.43;4.10;;;;;;;20.61;60.59;95032.34;5062180;28;20445;-72